createdAt,value
2019-05-05T00:01:22.136Z,8.93
2019-05-05T00:03:58.676Z,10.00
2019-05-05T00:06:27.814Z,8.17
2019-05-05T00:08:56.907Z,8.70
2019-05-05T00:11:54.708Z,8.70
2019-05-05T00:14:35.105Z,9.60
2019-05-05T00:17:15.292Z,8.27
2019-05-05T00:19:45.427Z,9.00
2019-05-05T00:22:15.212Z,9.60
2019-05-05T00:24:44.462Z,8.83
2019-05-05T00:27:14.975Z,9.40
2019-05-05T00:29:45.350Z,8.93
2019-05-05T00:32:15.370Z,9.20
2019-05-05T00:34:44.672Z,9.13
2019-05-05T00:37:15.220Z,9.30
2019-05-05T00:39:47.037Z,9.30
2019-05-05T00:42:16.222Z,9.67
2019-05-05T00:44:45.175Z,10.07
2019-05-05T00:47:32.000Z,10.27
2019-05-05T00:50:01.561Z,9.47
2019-05-05T00:52:30.394Z,9.83
2019-05-05T00:54:59.176Z,10.07
2019-05-05T00:57:28.292Z,9.70
2019-05-05T00:59:57.085Z,9.53
2019-05-05T01:02:38.260Z,9.47
2019-05-05T01:05:25.392Z,9.87
2019-05-05T01:07:54.848Z,9.97
2019-05-05T01:10:24.836Z,10.00
2019-05-05T01:12:54.555Z,9.40
2019-05-05T01:15:25.391Z,10.27
2019-05-05T01:17:55.297Z,9.97
2019-05-05T01:20:25.068Z,9.63
2019-05-05T01:22:55.267Z,10.10
2019-05-05T01:25:25.336Z,12.13
2019-05-05T01:27:54.608Z,11.23
2019-05-05T01:30:29.132Z,11.13
2019-05-05T01:33:05.465Z,12.10
2019-05-05T01:35:42.055Z,11.20
2019-05-05T01:38:17.428Z,11.53
2019-05-05T01:41:00.324Z,10.50
2019-05-05T01:43:29.097Z,12.07
2019-05-05T01:45:58.301Z,13.20
2019-05-05T01:48:27.483Z,12.30
2019-05-05T01:50:56.433Z,12.43
2019-05-05T01:53:25.665Z,12.50
2019-05-05T01:55:54.986Z,13.37
2019-05-05T01:58:24.504Z,12.73
2019-05-05T02:00:54.567Z,13.90
2019-05-05T02:03:24.420Z,12.77
2019-05-05T02:05:54.583Z,14.73
2019-05-05T02:08:24.493Z,13.77
2019-05-05T02:10:54.775Z,14.77
2019-05-05T02:13:25.132Z,14.80
2019-05-05T02:15:55.231Z,14.90
2019-05-05T02:18:25.385Z,16.30
2019-05-05T02:21:07.123Z,15.83
2019-05-05T02:23:37.358Z,14.87
2019-05-05T02:26:07.751Z,16.53
2019-05-05T02:28:45.374Z,17.00
2019-05-05T02:31:30.618Z,16.93
2019-05-05T02:33:59.572Z,16.03
2019-05-05T02:36:28.514Z,15.00
2019-05-05T02:38:57.698Z,16.77
2019-05-05T02:41:26.673Z,16.10
2019-05-05T02:43:56.499Z,16.50
2019-05-05T02:46:44.643Z,18.30
2019-05-05T02:49:15.285Z,17.50
2019-05-05T02:51:45.782Z,17.53
2019-05-05T02:54:16.125Z,16.73
2019-05-05T02:56:47.349Z,19.13
2019-05-05T02:59:25.942Z,17.97
2019-05-05T03:02:17.006Z,17.57
2019-05-05T03:04:46.250Z,17.83
2019-05-05T03:07:17.277Z,20.03
2019-05-05T03:09:47.868Z,18.57
2019-05-05T03:12:19.654Z,20.53
2019-05-05T03:14:50.314Z,20.40
2019-05-05T03:17:20.244Z,20.00
2019-05-05T03:19:49.907Z,21.43
2019-05-05T03:22:19.644Z,22.47
2019-05-05T03:24:48.775Z,20.60
2019-05-05T03:27:17.902Z,21.00
2019-05-05T03:29:47.642Z,23.63
2019-05-05T03:32:16.594Z,22.37
2019-05-05T03:34:45.798Z,22.20
2019-05-05T03:37:15.748Z,21.97
2019-05-05T03:39:49.689Z,21.50
2019-05-05T03:42:41.457Z,22.23
2019-05-05T03:45:23.549Z,20.90
2019-05-05T03:47:54.139Z,23.17
2019-05-05T03:50:23.787Z,20.47
2019-05-05T03:52:54.406Z,20.43
2019-05-05T03:55:24.114Z,19.63
2019-05-05T03:57:53.869Z,19.07
2019-05-05T04:00:34.029Z,19.73
2019-05-05T04:03:07.939Z,19.53
2019-05-05T04:05:40.569Z,17.93
2019-05-05T04:08:09.459Z,18.27
2019-05-05T04:10:38.581Z,18.97
2019-05-05T04:13:08.420Z,18.37
2019-05-05T04:15:39.228Z,17.37
2019-05-05T04:18:14.608Z,18.23
2019-05-05T04:20:44.298Z,16.87
2019-05-05T04:23:14.130Z,17.37
2019-05-05T04:25:43.948Z,16.60
2019-05-05T04:28:13.594Z,15.73
2019-05-05T04:30:44.462Z,17.17
2019-05-05T04:33:14.302Z,17.33
2019-05-05T04:35:44.456Z,17.13
2019-05-05T04:38:14.038Z,16.97
2019-05-05T04:40:43.623Z,16.87
2019-05-05T04:43:14.348Z,15.43
2019-05-05T04:45:43.657Z,15.33
2019-05-05T04:48:17.249Z,14.77
2019-05-05T04:50:58.163Z,15.90
2019-05-05T04:53:32.147Z,15.17
2019-05-05T04:56:01.041Z,14.17
2019-05-05T04:58:30.197Z,14.63
2019-05-05T05:00:58.983Z,12.90
2019-05-05T05:03:35.560Z,12.27
2019-05-05T05:06:11.324Z,12.57
2019-05-05T05:08:40.200Z,12.07
2019-05-05T05:11:09.354Z,11.43
2019-05-05T05:13:38.554Z,11.37
2019-05-05T05:16:07.511Z,11.93
2019-05-05T05:18:36.569Z,11.50
2019-05-05T05:21:05.426Z,12.50
2019-05-05T05:23:34.326Z,11.43
2019-05-05T05:26:05.078Z,11.53
2019-05-05T05:28:34.281Z,12.77
2019-05-05T05:31:03.881Z,11.57
2019-05-05T05:33:34.454Z,11.73
2019-05-05T05:36:04.149Z,11.27
2019-05-05T05:38:34.691Z,11.97
2019-05-05T05:41:09.109Z,12.73
2019-05-05T05:44:03.550Z,12.00
2019-05-05T05:46:41.268Z,12.03
2019-05-05T05:49:18.917Z,11.97
2019-05-05T05:51:47.708Z,11.73
2019-05-05T05:54:16.506Z,12.97
2019-05-05T05:56:45.406Z,11.20
2019-05-05T05:59:14.408Z,11.20
2019-05-05T06:01:43.709Z,11.47
2019-05-05T06:04:14.380Z,10.40
2019-05-05T06:06:43.934Z,10.97
2019-05-05T06:09:14.677Z,10.97
2019-05-05T06:11:43.689Z,9.90
2019-05-05T06:14:14.435Z,9.97
2019-05-05T06:16:44.630Z,9.83
2019-05-05T06:19:14.080Z,9.63
2019-05-05T06:21:44.009Z,10.60
2019-05-05T06:24:13.682Z,10.20
2019-05-05T06:26:44.557Z,11.20
2019-05-05T06:29:14.572Z,10.10
2019-05-05T06:31:44.797Z,10.40
2019-05-05T06:34:14.062Z,9.90
2019-05-05T06:36:44.439Z,9.83
2019-05-05T06:39:13.810Z,10.23
2019-05-05T06:41:58.504Z,9.63
2019-05-05T06:44:33.682Z,8.20
2019-05-05T06:47:05.054Z,8.73
2019-05-05T06:49:34.635Z,8.50
2019-05-05T06:52:04.194Z,8.73
2019-05-05T06:54:34.870Z,8.00
2019-05-05T06:57:04.502Z,8.60
2019-05-05T06:59:34.946Z,7.70
2019-05-05T07:02:04.427Z,7.30
2019-05-05T07:04:34.026Z,8.07
2019-05-05T07:07:05.175Z,6.70
2019-05-05T07:09:33.856Z,6.63
2019-05-05T07:12:04.574Z,6.20
2019-05-05T07:14:34.048Z,6.67
2019-05-05T07:17:05.128Z,5.43
2019-05-05T07:19:34.572Z,6.23
2019-05-05T07:22:04.186Z,5.70
2019-05-05T07:24:34.414Z,5.63
2019-05-05T07:27:04.805Z,6.40
2019-05-05T07:29:34.339Z,6.07
2019-05-05T07:32:04.128Z,7.13
2019-05-05T07:34:50.994Z,7.17
2019-05-05T07:37:19.764Z,6.83
2019-05-05T07:39:48.638Z,5.97
2019-05-05T07:42:17.493Z,6.10
2019-05-05T07:44:46.558Z,5.47
2019-05-05T07:47:15.344Z,5.53
2019-05-05T07:49:44.556Z,5.73
2019-05-05T07:52:15.113Z,6.27
2019-05-05T07:54:44.188Z,6.60
2019-05-05T07:57:14.632Z,6.57
2019-05-05T07:59:45.055Z,6.37
2019-05-05T08:02:14.587Z,6.23
2019-05-05T08:04:43.851Z,6.43
2019-05-05T08:07:14.652Z,6.27
2019-05-05T08:09:44.482Z,5.53
2019-05-05T08:12:13.823Z,5.37
2019-05-05T08:14:44.462Z,6.13
2019-05-05T08:17:39.042Z,6.07
2019-05-05T08:20:14.408Z,5.93
2019-05-05T08:22:44.349Z,5.43
2019-05-05T08:25:18.328Z,4.87
2019-05-05T08:28:08.916Z,5.57
2019-05-05T08:30:46.993Z,5.17
2019-05-05T08:33:16.282Z,5.40
2019-05-05T08:35:45.306Z,5.00
2019-05-05T08:38:14.228Z,5.27
2019-05-05T08:40:43.822Z,5.03
2019-05-05T08:43:13.839Z,5.20
2019-05-05T08:45:44.359Z,5.57
2019-05-05T08:48:14.244Z,4.60
2019-05-05T08:50:47.822Z,5.10
2019-05-05T08:53:16.817Z,5.43
2019-05-05T08:55:54.973Z,3.97
2019-05-05T08:58:23.870Z,4.47
2019-05-05T09:00:53.694Z,4.87
2019-05-05T09:03:24.263Z,4.73
2019-05-05T09:05:54.220Z,4.67
2019-05-05T09:08:24.176Z,3.93
2019-05-05T09:10:55.189Z,3.97
2019-05-05T09:13:36.541Z,4.00
2019-05-05T09:16:06.366Z,3.67
2019-05-05T09:18:38.413Z,3.90
2019-05-05T09:21:07.278Z,3.30
2019-05-05T09:23:37.730Z,3.20
2019-05-05T09:26:38.057Z,4.27
2019-05-05T09:29:14.844Z,3.57
2019-05-05T09:31:45.053Z,3.30
2019-05-05T09:34:14.667Z,3.17
2019-05-05T09:36:44.018Z,3.43
2019-05-05T09:39:13.857Z,3.53
2019-05-05T09:41:44.602Z,3.23
2019-05-05T09:44:13.718Z,3.07
2019-05-05T09:46:44.509Z,3.47
2019-05-05T09:49:14.112Z,3.23
2019-05-05T09:51:43.989Z,3.03
2019-05-05T09:54:16.692Z,3.40
2019-05-05T09:56:44.473Z,2.83
2019-05-05T09:59:13.613Z,3.00
2019-05-05T10:01:44.497Z,3.17
2019-05-05T10:04:13.975Z,2.73
2019-05-05T10:06:47.349Z,3.20
2019-05-05T10:09:14.215Z,2.43
2019-05-05T10:11:45.015Z,2.60
2019-05-05T10:14:14.410Z,2.63
2019-05-05T10:16:43.524Z,3.23
2019-05-05T10:19:13.877Z,2.30
2019-05-05T10:21:44.445Z,2.67
2019-05-05T10:24:28.686Z,3.13
2019-05-05T10:26:54.325Z,2.47
2019-05-05T10:29:23.437Z,2.93
2019-05-05T10:31:53.924Z,2.47
2019-05-05T10:34:24.218Z,2.57
2019-05-05T10:36:53.653Z,2.13
2019-05-05T10:39:33.458Z,2.53
2019-05-05T10:42:04.051Z,2.50
2019-05-05T10:44:34.065Z,2.57
2019-05-05T10:47:04.603Z,3.17
2019-05-05T10:49:33.869Z,3.03
2019-05-05T10:52:03.757Z,3.13
2019-05-05T10:54:43.297Z,2.80
2019-05-05T10:57:04.193Z,2.53
2019-05-05T10:59:34.405Z,2.57
2019-05-05T11:02:04.948Z,3.00
2019-05-05T11:04:34.177Z,2.47
2019-05-05T11:07:04.188Z,2.30
2019-05-05T11:09:33.947Z,2.90
2019-05-05T11:12:02.769Z,2.33
2019-05-05T11:14:33.536Z,2.67
2019-05-05T11:17:04.187Z,2.37
2019-05-05T11:19:33.675Z,2.77
2019-05-05T11:22:02.737Z,2.33
2019-05-05T11:24:31.621Z,2.50
2019-05-05T11:27:00.592Z,2.43
2019-05-05T11:29:29.363Z,2.37
2019-05-05T11:32:00.135Z,2.90
2019-05-05T11:34:30.097Z,2.57
2019-05-05T11:37:07.301Z,3.20
2019-05-05T11:39:36.153Z,2.57
2019-05-05T11:42:05.056Z,2.63
2019-05-05T11:44:34.200Z,2.33
2019-05-05T11:47:03.650Z,2.50
2019-05-05T11:49:33.693Z,2.73
2019-05-05T11:52:04.648Z,2.20
2019-05-05T11:54:36.292Z,2.40
2019-05-05T11:57:10.715Z,2.47
2019-05-05T11:59:41.073Z,2.57
2019-05-05T12:02:10.077Z,1.83
2019-05-05T12:04:38.908Z,2.00
2019-05-05T12:07:07.782Z,2.13
2019-05-05T12:09:48.444Z,2.10
2019-05-05T12:12:17.518Z,1.93
2019-05-05T12:14:47.302Z,2.27
2019-05-05T12:17:19.301Z,1.83
2019-05-05T12:19:48.547Z,2.07
2019-05-05T12:22:17.480Z,2.13
2019-05-05T12:24:47.930Z,1.53
2019-05-05T12:27:31.091Z,2.60
2019-05-05T12:30:04.273Z,1.53
2019-05-05T12:32:34.780Z,2.13
2019-05-05T12:35:04.344Z,1.87
2019-05-05T12:37:34.141Z,1.83
2019-05-05T12:40:04.843Z,2.20
2019-05-05T12:42:33.651Z,2.20
2019-05-05T12:45:05.880Z,1.77
2019-05-05T12:47:41.150Z,1.90
2019-05-05T12:50:10.289Z,1.90
2019-05-05T12:52:39.076Z,2.03
2019-05-05T12:55:08.021Z,1.93
2019-05-05T12:57:36.802Z,2.40
2019-05-05T13:00:07.131Z,1.63
2019-05-05T13:02:35.918Z,1.87
2019-05-05T13:05:05.425Z,1.30
2019-05-05T13:07:34.273Z,1.40
2019-05-05T13:10:04.798Z,1.30
2019-05-05T13:12:34.463Z,1.37
2019-05-05T13:15:04.149Z,1.40
2019-05-05T13:17:33.885Z,1.00
2019-05-05T13:20:13.912Z,1.43
2019-05-05T13:22:54.006Z,1.37
2019-05-05T13:25:56.115Z,1.57
2019-05-05T13:28:19.457Z,1.57
2019-05-05T13:30:48.525Z,1.70
2019-05-05T13:33:17.305Z,1.60
2019-05-05T13:35:46.372Z,1.93
2019-05-05T13:38:15.369Z,1.70
2019-05-05T13:40:44.224Z,1.40
2019-05-05T13:43:14.457Z,1.40
2019-05-05T13:45:54.101Z,1.93
2019-05-05T13:48:22.998Z,1.50
2019-05-05T13:50:55.291Z,1.47
2019-05-05T13:53:24.249Z,1.50
2019-05-05T13:56:02.482Z,2.13
2019-05-05T13:58:24.943Z,2.00
2019-05-05T14:00:54.675Z,1.50
2019-05-05T14:03:23.877Z,1.70
2019-05-05T14:05:54.114Z,2.20
2019-05-05T14:08:23.748Z,1.30
2019-05-05T14:10:54.033Z,1.17
2019-05-05T14:13:24.728Z,1.47
2019-05-05T14:15:54.482Z,1.50
2019-05-05T14:18:23.741Z,1.20
2019-05-05T14:20:52.577Z,1.30
2019-05-05T14:23:23.906Z,1.40
2019-05-05T14:25:54.388Z,1.17
2019-05-05T14:28:23.508Z,1.70
2019-05-05T14:31:04.947Z,1.27
2019-05-05T14:33:54.094Z,1.50
2019-05-05T14:36:39.234Z,1.30
2019-05-05T14:39:28.880Z,1.15
2019-05-05T14:41:57.785Z,1.22
2019-05-05T14:44:27.094Z,1.00
2019-05-05T14:46:55.916Z,0.93
2019-05-05T14:49:25.080Z,1.22
2019-05-05T14:51:54.116Z,1.20
2019-05-05T14:54:23.053Z,1.05
2019-05-05T14:56:51.969Z,1.22
2019-05-05T14:59:20.899Z,0.98
2019-05-05T15:01:50.001Z,0.93
2019-05-05T15:04:20.504Z,1.60
2019-05-05T15:06:58.972Z,1.27
2019-05-05T15:09:33.701Z,1.10
2019-05-05T15:12:21.009Z,1.07
2019-05-05T15:14:49.961Z,1.23
2019-05-05T15:17:18.937Z,1.20
2019-05-05T15:19:47.881Z,1.10
2019-05-05T15:22:16.791Z,1.77
2019-05-05T15:24:45.693Z,1.07
2019-05-05T15:27:14.661Z,1.40
2019-05-05T15:29:43.737Z,1.20
2019-05-05T15:32:14.791Z,1.57
2019-05-05T15:34:43.909Z,1.20
2019-05-05T15:37:14.503Z,1.10
2019-05-05T15:39:44.173Z,1.30
2019-05-05T15:42:13.225Z,1.00
2019-05-05T15:44:43.865Z,1.40
2019-05-05T15:47:12.786Z,1.10
2019-05-05T15:49:41.651Z,1.27
2019-05-05T15:52:10.561Z,1.43
2019-05-05T15:54:39.360Z,1.27
2019-05-05T15:57:09.598Z,1.47
2019-05-05T15:59:38.912Z,1.17
2019-05-05T16:02:13.315Z,1.37
2019-05-05T16:04:41.341Z,1.30
2019-05-05T16:07:19.269Z,0.90
2019-05-05T16:09:48.259Z,2.03
2019-05-05T16:12:17.403Z,1.30
2019-05-05T16:15:13.859Z,1.20
2019-05-05T16:18:09.102Z,1.27
2019-05-05T16:20:44.227Z,1.33
2019-05-05T16:23:18.310Z,1.40
2019-05-05T16:25:47.381Z,1.57
2019-05-05T16:28:16.713Z,1.40
2019-05-05T16:30:45.640Z,1.60
2019-05-05T16:33:14.592Z,1.50
2019-05-05T16:35:43.863Z,1.47
2019-05-05T16:38:16.232Z,1.43
2019-05-05T16:40:45.463Z,1.77
2019-05-05T16:43:16.722Z,1.80
2019-05-05T16:45:45.199Z,1.60
2019-05-05T16:48:14.288Z,1.60
2019-05-05T16:50:44.169Z,1.77
2019-05-05T16:53:34.328Z,1.33
2019-05-05T16:56:04.528Z,1.53
2019-05-05T16:58:33.543Z,1.50
2019-05-05T17:01:03.767Z,1.47
2019-05-05T17:03:32.713Z,2.00
2019-05-05T17:06:03.623Z,1.83
2019-05-05T17:08:33.804Z,1.10
2019-05-05T17:11:03.201Z,1.60
2019-05-05T17:13:49.813Z,2.17
2019-05-05T17:16:40.545Z,1.73
2019-05-05T17:19:16.858Z,1.80
2019-05-05T17:22:04.036Z,1.73
2019-05-05T17:24:34.441Z,2.33
2019-05-05T17:27:03.641Z,2.20
2019-05-05T17:29:34.484Z,1.73
2019-05-05T17:32:03.512Z,1.60
2019-05-05T17:34:33.940Z,1.87
2019-05-05T17:37:04.265Z,2.50
2019-05-05T17:39:35.741Z,1.57
2019-05-05T17:42:23.988Z,1.70
2019-05-05T17:45:15.434Z,2.00
2019-05-05T17:48:09.794Z,1.90
2019-05-05T17:51:07.393Z,1.70
2019-05-05T17:54:13.456Z,1.80
2019-05-05T17:56:42.352Z,1.90
2019-05-05T17:59:11.152Z,1.60
2019-05-05T18:01:40.035Z,2.40
2019-05-05T18:04:09.426Z,1.67
2019-05-05T18:06:44.036Z,1.80
2019-05-05T18:09:19.315Z,1.80
2019-05-05T18:12:05.708Z,1.53
2019-05-05T18:14:35.016Z,1.77
2019-05-05T18:17:04.280Z,1.57
2019-05-05T18:19:34.006Z,2.27
2019-05-05T18:22:03.164Z,1.60
2019-05-05T18:24:33.661Z,2.10
2019-05-05T18:27:04.435Z,2.30
2019-05-05T18:29:34.018Z,2.30
2019-05-05T18:32:04.326Z,4.73
2019-05-05T18:34:33.345Z,3.03
2019-05-05T18:37:03.771Z,1.70
2019-05-05T18:39:34.261Z,1.80
2019-05-05T18:42:08.924Z,1.90
2019-05-05T18:44:44.374Z,2.40
2019-05-05T18:47:18.657Z,2.13
2019-05-05T18:49:47.838Z,1.53
2019-05-05T18:52:16.713Z,2.10
2019-05-05T18:54:45.619Z,1.50
2019-05-05T18:57:14.716Z,1.73
2019-05-05T18:59:44.715Z,1.43
2019-05-05T19:02:31.201Z,1.63
2019-05-05T19:05:17.704Z,1.70
2019-05-05T19:08:07.812Z,2.00
2019-05-05T19:10:36.641Z,1.70
2019-05-05T19:13:05.901Z,1.70
2019-05-05T19:15:35.146Z,1.50
2019-05-05T19:18:06.358Z,1.83
2019-05-05T19:21:05.775Z,1.60
2019-05-05T19:23:35.660Z,1.90
2019-05-05T19:26:07.504Z,1.80
2019-05-05T19:28:44.319Z,2.23
2019-05-05T19:31:06.005Z,1.70
2019-05-05T19:33:35.122Z,1.97
2019-05-05T19:36:04.952Z,2.10
2019-05-05T19:38:34.667Z,1.77
2019-05-05T19:41:04.065Z,1.83
2019-05-05T19:43:34.021Z,2.10
2019-05-05T19:46:04.774Z,2.10
2019-05-05T19:48:34.055Z,2.70
2019-05-05T19:51:09.430Z,2.10
2019-05-05T19:53:38.294Z,2.60
2019-05-05T19:56:07.100Z,2.30
2019-05-05T19:58:36.552Z,2.77
2019-05-05T20:01:06.051Z,2.63
2019-05-05T20:03:35.499Z,2.63
2019-05-05T20:06:05.398Z,2.23
2019-05-05T20:08:41.042Z,2.43
2019-05-05T20:11:05.137Z,2.67
2019-05-05T20:13:34.017Z,2.30
2019-05-05T20:16:08.648Z,2.90
2019-05-05T20:18:37.721Z,2.63
2019-05-05T20:21:07.302Z,2.90
2019-05-05T20:23:36.648Z,2.83
2019-05-05T20:26:05.581Z,2.60
2019-05-05T20:28:34.714Z,2.60
2019-05-05T20:31:03.810Z,2.97
2019-05-05T20:33:48.488Z,2.53
2019-05-05T20:36:20.436Z,2.97
2019-05-05T20:38:51.037Z,3.33
2019-05-05T20:41:21.440Z,3.13
2019-05-05T20:43:50.425Z,3.53
2019-05-05T20:46:19.470Z,3.93
2019-05-05T20:48:48.333Z,3.57
2019-05-05T20:51:17.550Z,3.50
2019-05-05T20:53:49.125Z,3.40
2019-05-05T20:56:17.377Z,3.50
2019-05-05T20:58:46.273Z,3.50
2019-05-05T21:01:15.669Z,3.73
2019-05-05T21:03:44.601Z,3.67
2019-05-05T21:06:14.008Z,3.37
2019-05-05T21:08:44.012Z,3.43
2019-05-05T21:11:14.135Z,3.60
2019-05-05T21:13:45.021Z,3.80
2019-05-05T21:16:14.273Z,4.00
2019-05-05T21:18:43.345Z,3.87
2019-05-05T21:21:17.361Z,3.47
2019-05-05T21:23:54.599Z,4.10
2019-05-05T21:26:47.052Z,4.00
2019-05-05T21:29:16.168Z,4.47
2019-05-05T21:31:45.098Z,4.07
2019-05-05T21:34:14.162Z,4.77
2019-05-05T21:36:44.802Z,4.17
2019-05-05T21:39:14.807Z,3.63
2019-05-05T21:41:43.963Z,4.30
2019-05-05T21:44:14.722Z,4.10
2019-05-05T21:46:43.873Z,5.10
2019-05-05T21:49:13.597Z,5.83
2019-05-05T21:51:57.117Z,5.67
2019-05-05T21:54:40.601Z,6.27
2019-05-05T21:57:31.257Z,5.10
2019-05-05T22:00:00.044Z,6.00
2019-05-05T22:02:28.988Z,6.13
2019-05-05T22:04:58.054Z,7.23
2019-05-05T22:07:27.344Z,5.83
2019-05-05T22:09:56.189Z,5.90
2019-05-05T22:12:24.966Z,5.23
2019-05-05T22:14:55.092Z,4.80
2019-05-05T22:17:24.305Z,3.57
2019-05-05T22:20:04.079Z,4.00
2019-05-05T22:22:36.473Z,4.00
2019-05-05T22:25:05.628Z,4.40
2019-05-05T22:27:34.761Z,4.80
2019-05-05T22:30:10.026Z,4.67
2019-05-05T22:32:34.943Z,4.30
2019-05-05T22:35:04.368Z,5.00
2019-05-05T22:37:34.395Z,4.70
2019-05-05T22:40:03.582Z,5.77
2019-05-05T22:42:34.193Z,4.70
2019-05-05T22:45:04.658Z,5.47
2019-05-05T22:47:34.531Z,5.60
2019-05-05T22:50:04.475Z,5.37
2019-05-05T22:52:34.403Z,5.53
2019-05-05T22:55:04.565Z,4.67
2019-05-05T22:57:34.460Z,5.63
2019-05-05T23:00:04.395Z,6.17
2019-05-05T23:02:35.669Z,5.73
2019-05-05T23:05:14.917Z,6.50
2019-05-05T23:07:43.871Z,5.30
2019-05-05T23:10:14.070Z,5.60
2019-05-05T23:12:43.953Z,5.30
2019-05-05T23:15:14.487Z,5.93
2019-05-05T23:17:54.215Z,5.23
2019-05-05T23:21:08.017Z,5.53
2019-05-05T23:24:08.022Z,5.27
2019-05-05T23:26:38.261Z,5.33
2019-05-05T23:29:07.455Z,5.93
2019-05-05T23:31:36.248Z,5.40
2019-05-05T23:34:05.122Z,5.63
2019-05-05T23:36:34.401Z,5.83
2019-05-05T23:39:05.732Z,6.47
2019-05-05T23:41:36.025Z,5.80
2019-05-05T23:44:05.207Z,6.17
2019-05-05T23:46:34.868Z,5.83
2019-05-05T23:49:04.365Z,6.10
2019-05-05T23:51:34.737Z,5.80
2019-05-05T23:54:04.409Z,5.87
2019-05-05T23:56:34.983Z,6.23
2019-05-05T23:59:04.494Z,5.70
